Time;durP1;ratioP1;P1;durP2;ratioP2;P2;SDS_P1;SDS_P2;PMS_P1;PMS_P2;Temp;Humidity;BMP_temperature;BMP_pressure;BME280_temperature;BME280_humidity;BME280_pressure;Samples;Min_cycle;Max_cycle;Signal;HPM_P1;HPM_P2
2023/07/28 00:02:19;;;;;;;7.68;3.90;;;;;;;15.70;96.27;100092.47;4881813;29;19919;-75
2023/07/28 00:04:46;;;;;;;4.82;4.22;;;;;;;15.70;96.36;100092.47;4888641;29;20031;-76
2023/07/28 00:07:11;;;;;;;4.90;3.58;;;;;;;15.73;96.52;100096.44;4888452;29;20059;-75
2023/07/28 00:09:37;;;;;;;5.90;4.32;;;;;;;15.73;96.21;100096.44;4879459;29;20025;-75
2023/07/28 00:12:03;;;;;;;;;;;;;;;15.74;96.26;100109.63;4892505;29;20075;-73
2023/07/28 00:14:28;;;;;;;5.07;3.55;;;;;;;15.73;96.21;100101.84;4890206;29;20377;-75
2023/07/28 00:16:55;;;;;;;;;;;;;;;15.73;96.08;100108.03;4858266;29;20072;-75
2023/07/28 00:19:21;;;;;;;6.03;3.70;;;;;;;15.71;96.19;100104.84;4882246;29;19920;-75
2023/07/28 00:21:48;;;;;;;;;;;;;;;15.70;96.47;100097.88;4885988;29;20138;-73
2023/07/28 00:24:14;;;;;;;5.32;4.18;;;;;;;15.67;96.51;100103.13;4881058;29;19919;-74
2023/07/28 00:26:40;;;;;;;5.10;3.70;;;;;;;15.67;96.32;100097.72;4870604;29;20066;-75
2023/07/28 00:29:07;;;;;;;;;;;;;;;15.68;96.69;100099.31;4857229;29;20047;-75
2023/07/28 00:31:33;;;;;;;3.83;3.33;;;;;;;15.67;96.28;100092.34;4857977;29;20382;-74
2023/07/28 00:34:01;;;;;;;6.22;3.78;;;;;;;15.70;96.55;100094.38;4874257;29;20044;-72
2023/07/28 00:36:29;;;;;;;6.22;3.72;;;;;;;15.71;96.46;100083.25;4882189;29;20041;-73
2023/07/28 00:38:58;;;;;;;4.68;4.22;;;;;;;15.71;96.36;100083.25;4882194;29;20040;-74
2023/07/28 00:41:24;;;;;;;8.25;4.13;;;;;;;15.72;96.31;100084.06;4876650;29;20212;-73
2023/07/28 00:43:49;;;;;;;;;;;;;;;15.71;96.36;100077.84;4888807;29;20029;-74
2023/07/28 00:46:16;;;;;;;4.75;3.90;;;;;;;15.71;96.25;100082.47;4893367;29;19919;-74
2023/07/28 00:48:41;;;;;;;;;;;;;;;15.71;96.34;100091.34;4876027;29;20569;-74
2023/07/28 00:51:08;;;;;;;3.55;3.13;;;;;;;15.71;96.17;100087.88;4872280;29;20505;-74
2023/07/28 00:53:33;;;;;;;3.50;3.20;;;;;;;15.71;96.25;100088.66;4870262;29;20060;-76
2023/07/28 00:56:00;;;;;;;;;;;;;;;15.71;96.39;100087.88;4890793;29;20040;-75
2023/07/28 00:58:27;;;;;;;3.40;3.10;;;;;;;15.70;96.56;100084.38;4888493;29;20444;-74
2023/07/28 01:00:52;;;;;;;4.38;3.72;;;;;;;15.70;96.47;100087.06;4874124;29;20040;-75
2023/07/28 01:03:20;;;;;;;5.75;3.22;;;;;;;15.71;96.34;100087.88;4888142;29;20166;-75
2023/07/28 01:06:13;;;;;;;3.83;3.28;;;;;;;15.73;96.39;100080.25;4885839;29;20078;-74
2023/07/28 01:08:59;;;;;;;3.75;2.65;;;;;;;15.72;96.49;100068.66;4882080;29;20036;-76
2023/07/28 01:11:24;;;;;;;3.63;3.08;;;;;;;15.73;96.55;100082.97;4892212;29;20521;-75
2023/07/28 01:13:50;;;;;;;;;;;;;;;15.73;96.53;100085.66;4895101;29;20061;-75
2023/07/28 01:16:15;;;;;;;4.38;3.60;;;;;;;15.71;96.56;100083.25;4878024;29;19919;-75
2023/07/28 01:18:41;;;;;;;;;;;;;;;15.73;96.88;100080.25;4882330;29;20782;-76
2023/07/28 01:21:13;;;;;;;2.90;2.38;;;;;;;15.71;96.37;100077.84;4886067;29;20389;-73
2023/07/28 01:23:59;;;;;;;3.70;3.28;;;;;;;15.72;96.73;100067.88;4874220;29;20285;-76
2023/07/28 01:26:31;;;;;;;3.80;3.38;;;;;;;15.73;96.91;100072.16;4870387;29;20069;-74
2023/07/28 01:28:58;;;;;;;6.95;4.13;;;;;;;15.72;97.02;100075.97;4891307;29;20132;-74
2023/07/28 01:31:25;;;;;;;4.35;3.78;;;;;;;15.71;97.00;100066.25;4871153;29;20075;-75
2023/07/28 01:33:50;;;;;;;5.68;4.47;;;;;;;15.71;97.26;100061.66;4875727;29;20079;-74
2023/07/28 01:36:16;;;;;;;4.85;3.95;;;;;;;15.71;97.19;100061.66;4874072;29;20060;-73
2023/07/28 01:38:41;;;;;;;;;;;;;;;15.72;96.91;100070.56;4893896;29;20114;-75
2023/07/28 01:41:07;;;;;;;4.13;3.17;;;;;;;15.71;97.11;100063.56;4886175;29;19925;-74
2023/07/28 01:43:32;;;;;;;3.70;3.00;;;;;;;15.71;97.08;100060.88;4891505;29;20070;-75
2023/07/28 01:45:58;;;;;;;7.97;3.60;;;;;;;15.71;96.82;100067.06;4883334;29;20157;-74
2023/07/28 01:48:24;;;;;;;;;;;;;;;15.72;97.12;100073.28;4887891;29;20055;-75
2023/07/28 01:50:49;;;;;;;6.85;4.00;;;;;;;15.71;97.03;100071.66;4895620;29;20001;-74
2023/07/28 01:53:15;;;;;;;;;;;;;;;15.71;96.93;100067.06;4883144;29;20517;-75
2023/07/28 01:55:41;;;;;;;3.25;2.55;;;;;;;15.69;96.71;100069.28;4893235;29;19926;-74
2023/07/28 01:58:06;;;;;;;2.95;2.55;;;;;;;15.70;96.80;100060.06;4909085;29;20044;-75
2023/07/28 02:00:32;;;;;;;5.45;3.30;;;;;;;15.71;96.84;100071.66;4895032;29;20056;-74
2023/07/28 02:03:01;;;;;;;3.60;3.30;;;;;;;15.72;96.95;100073.28;4888874;29;20032;-73
2023/07/28 02:05:28;;;;;;;3.55;2.90;;;;;;;15.73;96.51;100077.56;4890446;29;20039;-74
2023/07/28 02:07:55;;;;;;;4.10;3.70;;;;;;;15.72;96.47;100074.06;4891377;29;20123;-75
2023/07/28 02:10:23;;;;;;;4.10;2.85;;;;;;;15.74;96.63;100082.63;4872120;29;20581;-74
2023/07/28 02:12:50;;;;;;;2.83;2.50;;;;;;;15.74;96.39;100082.63;4871586;29;20080;-74
2023/07/28 02:15:16;;;;;;;4.88;3.28;;;;;;;15.75;96.63;100073.41;4871743;29;20080;-73
2023/07/28 02:17:42;;;;;;;4.35;3.10;;;;;;;15.75;96.84;100078.03;4886026;29;20045;-75
2023/07/28 02:20:12;;;;;;;;;;;;;;;15.76;96.86;100079.59;4898189;29;20083;-74
2023/07/28 02:22:39;;;;;;;2.53;1.77;;;;;;;15.74;96.87;100082.63;4875680;29;19919;-75
2023/07/28 02:25:06;;;;;;;3.88;2.65;;;;;;;15.75;96.83;100078.03;4887516;29;20072;-75
2023/07/28 02:27:31;;;;;;;;;;;;;;;15.74;96.59;100082.63;4873317;29;20040;-74
2023/07/28 02:29:57;;;;;;;4.50;3.50;;;;;;;15.73;96.91;100074.88;4870441;29;19920;-74
2023/07/28 02:32:22;;;;;;;;;;;;;;;15.73;96.90;100085.66;4894550;29;20100;-75
2023/07/28 02:34:49;;;;;;;4.70;3.42;;;;;;;15.72;96.60;100089.47;4876534;29;20001;-75
2023/07/28 02:37:15;;;;;;;5.32;3.05;;;;;;;15.72;96.53;100095.66;4891642;29;20052;-73
2023/07/28 02:39:41;;;;;;;3.53;3.03;;;;;;;15.72;96.49;100090.25;4893741;29;20841;-74
2023/07/28 02:42:07;;;;;;;3.03;2.45;;;;;;;15.73;96.63;100099.16;4860789;29;20033;-74
2023/07/28 02:44:34;;;;;;;;;;;;;;;15.74;96.88;100092.63;4885396;29;20051;-77
2023/07/28 02:47:00;;;;;;;6.38;3.25;;;;;;;15.72;97.04;100094.88;4871542;29;19919;-76
2023/07/28 02:49:27;;;;;;;4.28;3.25;;;;;;;15.71;97.15;100093.25;4890888;29;20048;-73
2023/07/28 02:51:53;;;;;;;;;;;;;;;15.70;97.38;100097.06;4890007;29;20048;-74
2023/07/28 02:54:19;;;;;;;2.88;2.20;;;;;;;15.70;97.12;100102.47;4885042;29;20009;-75
2023/07/28 02:56:45;;;;;;;3.20;2.75;;;;;;;15.70;97.29;100107.88;4872362;29;20044;-74
2023/07/28 02:59:11;;;;;;;3.97;3.20;;;;;;;15.68;97.25;100104.72;4877000;29;20124;-73
2023/07/28 03:01:37;;;;;;;;;;;;;;;15.68;97.45;100110.91;4877962;29;20143;-74
2023/07/28 03:04:03;;;;;;;6.68;3.03;;;;;;;15.66;97.43;100106.94;4891301;29;20014;-73
2023/07/28 03:06:34;;;;;;;;;;;;;;;15.66;97.70;100113.13;4889911;29;20037;-74
2023/07/28 03:09:00;;;;;;;5.68;3.60;;;;;;;15.66;97.69;100128.53;4892603;29;19925;-72
2023/07/28 03:11:39;;;;;;;5.57;3.17;;;;;;;15.65;97.88;100130.44;4895548;29;20066;-74
2023/07/28 03:14:04;;;;;;;;;;;;;;;15.65;97.82;100125.03;4861679;29;20407;-75
2023/07/28 03:16:30;;;;;;;4.35;2.72;;;;;;;15.63;98.12;100129.16;4900677;29;20285;-76
2023/07/28 03:18:56;;;;;;;;;;;;;;;15.64;98.01;100128.03;4892870;29;20407;-76
2023/07/28 03:21:21;;;;;;;4.65;2.53;;;;;;;15.62;98.07;100133.75;4878497;29;20008;-74
2023/07/28 03:23:47;;;;;;;2.85;2.38;;;;;;;15.62;97.80;100131.06;4869270;29;20097;-73
2023/07/28 03:26:13;;;;;;;4.00;3.08;;;;;;;15.65;97.87;100135.06;4883088;29;20522;-74
2023/07/28 03:28:39;;;;;;;;;;;;;;;15.66;98.02;100133.94;4873283;29;20036;-75
2023/07/28 03:31:04;;;;;;;4.22;3.00;;;;;;;15.63;97.83;100138.03;4895654;29;19929;-74
2023/07/28 03:33:30;;;;;;;;;;;;;;;15.64;97.75;100130.75;4893577;29;20033;-74
2023/07/28 03:35:56;;;;;;;5.85;4.63;;;;;;;15.62;97.69;100132.97;4874119;29;19924;-74
2023/07/28 03:38:24;;;;;;;3.33;2.70;;;;;;;15.63;98.09;100134.56;4870077;29;21057;-75
2023/07/28 03:40:50;;;;;;;3.65;2.55;;;;;;;15.62;97.73;100136.47;4892230;29;20032;-73
2023/07/28 03:43:15;;;;;;;4.88;2.42;;;;;;;15.61;97.85;100134.84;4891264;29;20036;-73
2023/07/28 03:45:42;;;;;;;3.40;2.10;;;;;;;15.63;97.60;100131.84;4893498;29;20044;-75
2023/07/28 03:48:07;;;;;;;;;;;;;;;15.61;97.71;100125.97;4887999;29;21163;-74
2023/07/28 03:50:33;;;;;;;3.03;2.20;;;;;;;15.57;97.49;100121.19;4880055;29;20014;-74
2023/07/28 03:52:58;;;;;;;;;;;;;;;15.59;97.57;100122.78;4892204;29;20399;-73
2023/07/28 03:55:24;;;;;;;3.00;2.50;;;;;;;15.59;97.55;100133.59;4892493;29;20003;-74
2023/07/28 03:57:50;;;;;;;3.90;2.53;;;;;;;15.57;97.18;100131.97;4906428;29;20120;-73
2023/07/28 04:00:16;;;;;;;3.92;2.15;;;;;;;15.59;97.00;100149.78;4870254;29;20033;-72
2023/07/28 04:02:41;;;;;;;;;;;;;;;15.56;97.31;100146.59;4893669;29;20036;-74
2023/07/28 04:05:07;;;;;;;3.97;2.60;;;;;;;15.55;97.17;100155.00;4877392;29;20370;-74
2023/07/28 04:07:32;;;;;;;;;;;;;;;15.57;97.56;100158.97;4897705;29;20044;-74
2023/07/28 04:09:59;;;;;;;3.15;2.65;;;;;;;15.59;97.90;100149.78;4877008;29;19915;-73
2023/07/28 04:12:25;;;;;;;;;;;;;;;15.61;97.63;100169.16;4898673;29;20463;-72
2023/07/28 04:14:50;;;;;;;5.05;2.58;;;;;;;15.60;97.92;100168.34;4878150;29;19954;-73
2023/07/28 04:17:16;;;;;;;;;;;;;;;15.60;97.84;100168.34;4892175;29;20041;-73
2023/07/28 04:19:42;;;;;;;2.70;2.35;;;;;;;15.57;97.45;100168.97;4887864;29;20398;-74
2023/07/28 04:22:07;;;;;;;;;;;;;;;15.60;97.34;100171.06;4902092;29;20128;-75
2023/07/28 04:24:34;;;;;;;2.72;2.10;;;;;;;15.60;97.61;100172.97;4891889;29;20006;-72
2023/07/28 04:27:00;;;;;;;3.22;2.78;;;;;;;15.61;97.42;100172.63;4872896;29;20040;-73
2023/07/28 04:29:27;;;;;;;;;;;;;;;15.62;97.61;100181.56;4890470;29;20135;-74
2023/07/28 04:31:53;;;;;;;3.08;2.50;;;;;;;15.60;97.31;100183.75;4884184;29;19931;-74
2023/07/28 04:34:27;;;;;;;2.72;2.50;;;;;;;15.59;97.34;100182.97;4859365;29;20036;-73
2023/07/28 04:37:05;;;;;;;5.40;2.85;;;;;;;15.61;97.54;100198.84;4886661;29;20040;-73
2023/07/28 04:39:43;;;;;;;4.30;2.58;;;;;;;15.61;97.49;100190.72;4864011;29;20534;-73
2023/07/28 04:42:10;;;;;;;5.43;2.70;;;;;;;15.61;97.61;100201.53;4873445;29;20517;-74
2023/07/28 04:44:40;;;;;;;3.40;2.35;;;;;;;15.62;97.26;100197.75;4885718;29;20036;-74
2023/07/28 04:47:06;;;;;;;4.07;3.17;;;;;;;15.63;97.35;100199.34;4888786;29;20040;-73
2023/07/28 04:49:32;;;;;;;;;;;;;;;15.66;97.33;100198.72;4876649;29;20044;-73
2023/07/28 04:52:07;;;;;;;3.75;3.20;;;;;;;15.65;97.59;100202.53;4899815;29;19927;-75
2023/07/28 04:54:47;;;;;;;2.97;2.40;;;;;;;15.68;97.63;100207.28;4864227;29;20051;-73
2023/07/28 04:57:12;;;;;;;;;;;;;;;15.68;97.61;100212.69;4875702;29;20687;-73
2023/07/28 04:59:38;;;;;;;2.90;1.80;;;;;;;15.69;97.47;100219.66;4859587;29;19954;-73
2023/07/28 05:02:04;;;;;;;;;;;;;;;15.70;97.59;100222.03;4883264;29;20079;-72
2023/07/28 05:04:30;;;;;;;4.28;2.75;;;;;;;15.71;97.77;100209.34;4879350;29;19926;-73
2023/07/28 05:06:55;;;;;;;;;;;;;;;15.73;97.85;100215.22;4880514;29;20456;-73
2023/07/28 05:09:21;;;;;;;4.03;2.53;;;;;;;15.74;97.71;100212.22;4895283;29;19954;-73
2023/07/28 05:11:47;;;;;;;;;;;;;;;15.77;97.70;100208.88;4860828;29;20045;-73
2023/07/28 05:14:12;;;;;;;4.00;2.80;;;;;;;15.79;97.67;100213.97;4892306;29;19971;-73
2023/07/28 05:16:39;;;;;;;;;;;;;;;15.80;97.24;100210.94;4891459;29;20055;-73
2023/07/28 05:19:22;;;;;;;3.28;2.40;;;;;;;15.83;97.22;100214.91;4875709;29;19923;-73
2023/07/28 05:22:06;;;;;;;4.55;3.75;;;;;;;15.84;97.15;100217.28;4894227;29;20112;-75
2023/07/28 05:24:52;;;;;;;3.28;2.88;;;;;;;15.90;97.42;100220.63;4890913;29;20069;-73
2023/07/28 05:27:18;;;;;;;;;;;;;;;15.93;97.00;100224.63;4877141;29;20609;-74
2023/07/28 05:29:46;;;;;;;5.43;3.17;;;;;;;15.88;95.56;100230.97;4875293;29;19915;-73
2023/07/28 05:32:12;;;;;;;;;;;;;;;15.89;95.32;100234.44;4889196;29;20076;-74
2023/07/28 05:34:49;;;;;;;3.97;2.60;;;;;;;15.88;94.84;100233.66;4880887;29;19926;-73
2023/07/28 05:37:15;;;;;;;;;;;;;;;15.92;95.01;100234.63;4877532;29;20044;-74
2023/07/28 05:39:41;;;;;;;3.85;2.95;;;;;;;15.95;94.85;100236.69;4877776;29;20441;-73
2023/07/28 05:42:07;;;;;;;5.82;3.40;;;;;;;15.96;94.59;100243.66;4885329;29;20109;-74
2023/07/28 05:44:33;;;;;;;;;;;;;;;15.98;94.50;100236.03;4895348;29;20040;-74
2023/07/28 05:46:59;;;;;;;3.78;2.58;;;;;;;16.00;95.00;100241.94;4885099;29;19931;-73
2023/07/28 05:49:24;;;;;;;4.70;3.22;;;;;;;16.01;94.99;100232.72;4861066;29;20042;-74
2023/07/28 05:51:50;;;;;;;7.03;3.65;;;;;;;16.05;95.95;100247.19;4895983;29;20055;-74
2023/07/28 05:54:16;;;;;;;5.75;3.50;;;;;;;16.05;95.78;100239.06;4873541;29;20053;-74
2023/07/28 05:56:42;;;;;;;5.68;3.20;;;;;;;16.05;95.82;100239.06;4879838;29;20041;-74
2023/07/28 05:59:08;;;;;;;6.13;3.33;;;;;;;16.10;95.38;100240.81;4890855;29;20045;-74
2023/07/28 06:01:34;;;;;;;8.25;4.05;;;;;;;16.17;96.15;100240.31;4886927;29;20040;-74
2023/07/28 06:04:18;;;;;;;6.32;3.40;;;;;;;16.19;95.71;100246.19;4886987;29;20041;-73
2023/07/28 06:06:47;;;;;;;4.25;3.38;;;;;;;16.24;95.42;100243.34;4868673;29;20036;-73
2023/07/28 06:09:14;;;;;;;4.40;3.70;;;;;;;16.30;95.56;100250.16;4896637;29;20028;-76
2023/07/28 06:11:40;;;;;;;5.30;3.88;;;;;;;16.30;94.73;100250.97;4889726;29;20041;-77
2023/07/28 06:14:06;;;;;;;6.00;4.43;;;;;;;16.39;95.66;100259.06;4880149;29;20039;-75
2023/07/28 06:16:34;;;;;;;6.28;3.55;;;;;;;16.44;95.85;100260.81;4875330;29;20040;-76
2023/07/28 06:19:00;;;;;;;5.88;4.82;;;;;;;16.47;96.23;100260.97;4862076;29;20091;-75
2023/07/28 06:21:26;;;;;;;;;;;;;;;16.49;95.59;100260.66;4893405;29;20045;-75
2023/07/28 06:23:51;;;;;;;3.85;3.45;;;;;;;16.50;94.46;100265.72;4878304;29;20260;-75
2023/07/28 06:26:18;;;;;;;4.10;3.70;;;;;;;16.55;93.48;100264.78;4887462;29;20045;-75
2023/07/28 06:28:45;;;;;;;4.75;4.22;;;;;;;16.59;94.20;100263.00;4879567;29;20047;-75
2023/07/28 06:31:11;;;;;;;4.95;4.45;;;;;;;16.65;94.92;100267.13;4885135;29;20600;-76
2023/07/28 06:33:37;;;;;;;;;;;;;;;16.65;93.91;100272.53;4879531;29;20039;-75
2023/07/28 06:36:03;;;;;;;4.55;4.07;;;;;;;16.70;93.93;100279.72;4891665;29;20352;-76
2023/07/28 06:38:29;;;;;;;4.00;3.65;;;;;;;16.72;93.99;100278.28;4898278;29;20032;-76
2023/07/28 06:40:55;;;;;;;;;;;;;;;16.77;94.20;100285.44;4886794;29;20046;-75
2023/07/28 06:43:21;;;;;;;5.85;4.10;;;;;;;16.74;94.29;100276.06;4877028;29;19926;-78
2023/07/28 06:45:50;;;;;;;5.60;5.10;;;;;;;16.72;93.99;100274.78;4892965;29;20037;-77
2023/07/28 06:48:16;;;;;;;5.43;4.93;;;;;;;16.73;93.86;100270.94;4868754;29;20040;-75
2023/07/28 06:50:42;;;;;;;;;;;;;;;16.80;94.60;100284.78;4880462;29;20169;-76
2023/07/28 06:53:08;;;;;;;5.25;4.75;;;;;;;16.82;94.34;100282.56;4893085;29;20021;-75
2023/07/28 06:55:33;;;;;;;;;;;;;;;16.87;94.84;100290.50;4876246;29;20148;-76
2023/07/28 06:57:59;;;;;;;4.65;3.90;;;;;;;16.87;94.46;100288.59;4861054;29;20358;-77
2023/07/28 07:00:25;;;;;;;3.20;2.90;;;;;;;16.87;93.01;100290.50;4884118;29;20041;-75
2023/07/28 07:02:50;;;;;;;;;;;;;;;16.92;94.12;100298.41;4869186;29;20406;-77
2023/07/28 07:05:16;;;;;;;4.65;4.20;;;;;;;16.98;94.27;100296.34;4872032;29;19946;-76
2023/07/28 07:07:42;;;;;;;;;;;;;;;17.05;94.37;100308.25;4900221;29;20122;-75
2023/07/28 07:10:08;;;;;;;4.03;3.63;;;;;;;17.06;93.96;100309.84;4877780;29;20448;-76
2023/07/28 07:12:35;;;;;;;3.72;3.40;;;;;;;17.03;92.67;100310.50;4894349;29;20068;-75
2023/07/28 07:15:01;;;;;;;4.40;3.58;;;;;;;17.02;92.55;100314.31;4875894;29;20052;-76
2023/07/28 07:17:28;;;;;;;3.45;3.08;;;;;;;17.02;91.53;100319.72;4876807;29;20040;-75
2023/07/28 07:19:53;;;;;;;4.40;2.80;;;;;;;17.08;91.68;100323.84;4893683;29;20870;-78
2023/07/28 07:22:19;;;;;;;;;;;;;;;17.06;90.35;100326.06;4879911;29;20040;-75
2023/07/28 07:24:44;;;;;;;3.00;2.70;;;;;;;17.07;89.96;100332.28;4893306;29;20402;-77
2023/07/28 07:27:10;;;;;;;;;;;;;;;17.08;90.03;100333.88;4891154;29;20059;-78
2023/07/28 07:29:39;;;;;;;3.85;2.20;;;;;;;17.10;90.27;100332.44;4889853;29;19923;-75
2023/07/28 07:32:06;;;;;;;4.70;3.10;;;;;;;17.13;90.54;100336.38;4890651;29;20048;-76
2023/07/28 07:34:33;;;;;;;3.95;2.88;;;;;;;17.13;91.14;100336.38;4892887;29;20111;-76
2023/07/28 07:36:59;;;;;;;3.45;2.78;;;;;;;17.14;91.91;100332.59;4877215;29;20800;-76
2023/07/28 07:39:27;;;;;;;3.90;3.28;;;;;;;17.14;93.06;100338.00;4879476;29;20032;-77
2023/07/28 07:41:52;;;;;;;;;;;;;;;17.15;93.60;100348.50;4897165;29;20032;-75
2023/07/28 07:44:18;;;;;;;4.45;3.80;;;;;;;17.13;93.10;100348.00;4896009;29;19926;-75
2023/07/28 07:46:43;;;;;;;4.72;3.65;;;;;;;17.16;93.50;100352.78;4875031;29;20416;-76
2023/07/28 07:49:09;;;;;;;;;;;;;;;17.19;94.21;100360.25;4894711;29;20043;-75
2023/07/28 07:51:34;;;;;;;7.45;3.22;;;;;;;17.19;94.28;100357.53;4900224;29;20384;-75
2023/07/28 07:54:03;;;;;;;;;;;;;;;17.21;94.51;100356.44;4878883;29;20036;-76
2023/07/28 07:56:29;;;;;;;5.68;3.85;;;;;;;17.18;94.38;100366.78;4894669;29;20111;-77
2023/07/28 07:58:55;;;;;;;;;;;;;;;17.19;93.98;100362.94;4877445;29;20042;-76
2023/07/28 08:01:22;;;;;;;6.38;4.28;;;;;;;17.18;92.46;100361.38;4889516;29;20373;-75
2023/07/28 08:03:47;;;;;;;4.97;3.85;;;;;;;17.22;93.41;100366.16;4894747;29;20028;-75
2023/07/28 08:06:13;;;;;;;;;;;;;;;17.25;92.52;100365.50;4894352;29;20044;-74
2023/07/28 08:08:39;;;;;;;4.50;3.80;;;;;;;17.29;93.20;100371.84;4880249;29;20295;-76
2023/07/28 08:11:05;;;;;;;;;;;;;;;17.34;92.31;100385.19;4864478;29;20056;-76
2023/07/28 08:13:31;;;;;;;4.22;3.65;;;;;;;17.37;92.96;100379.94;4878951;29;19962;-75
2023/07/28 08:15:57;;;;;;;;;;;;;;;17.39;92.00;100382.31;4878749;29;20116;-76
2023/07/28 08:18:22;;;;;;;7.43;3.60;;;;;;;17.40;91.42;100383.91;4890640;29;20010;-75
2023/07/28 08:20:48;;;;;;;;;;;;;;;17.33;88.53;100378.19;4877356;29;20469;-75
2023/07/28 08:23:14;;;;;;;4.90;3.55;;;;;;;17.34;89.13;100374.38;4877619;29;19923;-75
2023/07/28 08:25:40;;;;;;;;;;;;;;;17.35;89.14;100386.81;4885137;29;20159;-75
2023/07/28 08:28:06;;;;;;;4.68;3.20;;;;;;;17.38;90.42;100394.28;4888609;29;20413;-77
2023/07/28 08:30:31;;;;;;;;;;;;;;;17.44;90.48;100384.84;4891999;29;20029;-75
2023/07/28 08:32:57;;;;;;;4.15;2.63;;;;;;;17.50;90.98;100399.81;4877712;29;20587;-75
2023/07/28 08:35:23;;;;;;;;;;;;;;;17.55;90.15;100402.34;4880410;29;20042;-75
2023/07/28 08:37:48;;;;;;;3.50;3.03;;;;;;;17.60;89.27;100399.44;4885091;29;20017;-75
2023/07/28 08:40:14;;;;;;;;;;;;;;;17.68;90.41;100414.88;4864125;29;20041;-74
2023/07/28 08:42:40;;;;;;;5.07;3.08;;;;;;;17.70;90.17;100409.91;4883981;29;20015;-74
2023/07/28 08:45:10;;;;;;;5.15;3.65;;;;;;;17.76;89.70;100407.06;4880718;29;20514;-74
2023/07/28 08:47:37;;;;;;;4.45;3.78;;;;;;;17.79;89.39;100414.53;4877602;29;20067;-76
2023/07/28 08:50:03;;;;;;;4.38;3.97;;;;;;;17.73;88.55;100412.00;4887325;29;20148;-73
2023/07/28 08:52:32;;;;;;;4.07;3.50;;;;;;;17.78;90.39;100421.06;4880429;29;20513;-76
2023/07/28 08:54:58;;;;;;;4.90;3.70;;;;;;;17.77;90.76;100417.56;4891688;29;20048;-74
2023/07/28 08:57:23;;;;;;;;;;;;;;;17.71;88.93;100422.38;4889157;29;20040;-77
2023/07/28 08:59:49;;;;;;;5.00;4.45;;;;;;;17.70;87.84;100412.63;4900493;23;19978;-78
2023/07/28 09:02:16;;;;;;;5.28;4.78;;;;;;;17.74;87.59;100410.88;4855545;29;20511;-79
2023/07/28 09:04:43;;;;;;;5.75;4.63;;;;;;;17.79;87.64;100415.31;4850283;29;20051;-78
2023/07/28 09:07:08;;;;;;;4.97;4.47;;;;;;;17.90;87.41;100427.38;4864643;29;20044;-75
2023/07/28 09:09:34;;;;;;;;;;;;;;;17.95;86.43;100410.97;4840067;29;20045;-75
2023/07/28 09:12:03;;;;;;;6.13;4.25;;;;;;;17.98;87.71;100420.34;4842660;29;19915;-74
2023/07/28 09:14:30;;;;;;;5.10;4.18;;;;;;;18.02;87.68;100426.72;4872281;29;20094;-78
2023/07/28 09:17:05;;;;;;;4.22;3.63;;;;;;;18.04;87.66;100421.75;4840723;29;20045;-77
2023/07/28 09:19:30;;;;;;;4.03;3.63;;;;;;;18.04;87.36;100419.03;4823677;29;20038;-80
2023/07/28 09:22:01;;;;;;;5.55;3.85;;;;;;;18.10;86.47;100428.56;4842079;29;20461;-77
2023/07/28 09:24:34;;;;;;;4.80;4.32;;;;;;;18.10;86.30;100431.28;4837538;29;20038;-76
2023/07/28 09:27:02;;;;;;;5.30;4.05;;;;;;;18.14;86.73;100424.06;4853495;29;20048;-76
2023/07/28 09:29:28;;;;;;;6.55;4.93;;;;;;;18.18;86.97;100438.56;4845299;29;20055;-76
2023/07/28 09:32:04;;;;;;;;;;;;;;;18.21;86.70;100439.81;4828926;29;20492;-74
2023/07/28 09:34:30;;;;;;;5.13;4.38;;;;;;;18.28;87.83;100440.88;4841325;29;19924;-76
2023/07/28 09:36:56;;;;;;;;;;;;;;;18.37;88.81;100438.13;4841574;29;20037;-77
2023/07/28 09:39:22;;;;;;;5.57;4.97;;;;;;;18.40;87.23;100436.66;4856689;29;19931;-79
2023/07/28 09:41:48;;;;;;;4.95;4.45;;;;;;;18.40;86.94;100436.66;4863296;29;20120;-77
2023/07/28 09:44:14;;;;;;;;;;;;;;;18.47;89.32;100429.59;4859138;29;20495;-74
2023/07/28 09:46:59;;;;;;;6.18;4.35;;;;;;;18.50;88.91;100431.66;4859557;29;19924;-78
2023/07/28 09:49:34;;;;;;;5.50;5.00;;;;;;;18.52;88.50;100434.81;4843864;29;20038;-78
2023/07/28 09:52:09;;;;;;;6.03;5.43;;;;;;;18.58;88.08;100438.16;4822930;29;20503;-77
2023/07/28 09:54:44;;;;;;;5.43;4.93;;;;;;;18.61;86.27;100440.19;4848646;29;20457;-75
2023/07/28 09:57:15;;;;;;;8.40;5.53;;;;;;;18.64;88.33;100444.97;4840309;29;20045;-77
2023/07/28 09:59:42;;;;;;;7.07;5.72;;;;;;;18.61;86.20;100452.94;4857731;29;20069;-76
2023/07/28 10:02:09;;;;;;;5.97;5.20;;;;;;;18.58;86.01;100446.28;4840872;29;20073;-78
2023/07/28 10:04:35;;;;;;;5.97;4.50;;;;;;;18.59;85.29;100445.16;4841282;29;20044;-74
2023/07/28 10:07:01;;;;;;;;;;;;;;;18.58;84.02;100442.78;4839833;29;20030;-78
2023/07/28 10:09:29;;;;;;;5.55;5.03;;;;;;;18.60;84.96;100445.94;4825058;29;19946;-77
2023/07/28 10:11:55;;;;;;;8.23;5.45;;;;;;;18.62;86.61;100447.19;4842568;29;20037;-77
2023/07/28 10:14:31;;;;;;;;;;;;;;;18.58;85.13;100454.41;4842655;29;20045;-77
2023/07/28 10:16:58;;;;;;;;;;;;;;;18.53;83.53;100455.41;4856498;29;19923;-78
2023/07/28 10:19:34;;;;;;;5.25;4.70;;;;;;;18.57;84.17;100454.75;4852337;29;19967;-76
2023/07/28 10:22:01;;;;;;;4.90;4.32;;;;;;;18.57;85.74;100452.84;4840858;29;20033;-77
2023/07/28 10:24:56;;;;;;;7.15;6.05;;;;;;;18.65;88.44;100459.31;4854559;29;20041;-77
2023/07/28 10:27:38;;;;;;;5.43;3.88;;;;;;;18.61;84.98;100470.00;4823268;29;20033;-76
2023/07/28 10:30:11;;;;;;;6.93;3.88;;;;;;;18.62;87.15;100459.97;4841749;29;20412;-75
2023/07/28 10:32:43;;;;;;;4.68;4.18;;;;;;;18.68;88.51;100469.50;4854666;29;20041;-75
2023/07/28 10:35:11;;;;;;;5.10;4.40;;;;;;;18.75;89.39;100465.16;4839377;29;20709;-75
2023/07/28 10:37:37;;;;;;;5.63;5.03;;;;;;;18.76;85.88;100469.47;4853932;29;20034;-77
2023/07/28 10:40:22;;;;;;;4.50;4.10;;;;;;;18.81;84.72;100471.97;4867919;29;20064;-76
2023/07/28 10:42:48;;;;;;;5.18;3.88;;;;;;;18.84;83.75;100472.44;4855364;29;20053;-78
2023/07/28 10:45:15;;;;;;;4.95;3.60;;;;;;;18.86;83.76;100467.47;4857249;29;20056;-77
2023/07/28 10:47:42;;;;;;;4.00;3.60;;;;;;;18.96;83.51;100475.19;4843114;29;20037;-77
2023/07/28 10:50:12;;;;;;;4.78;3.75;;;;;;;19.02;83.98;100463.81;4839399;29;20053;-78
2023/07/28 10:52:42;;;;;;;4.07;3.67;;;;;;;19.13;83.18;100474.28;4853006;29;20026;-78
2023/07/28 10:55:21;;;;;;;4.53;4.05;;;;;;;19.13;84.96;100477.00;4841744;29;20837;-80
2023/07/28 10:57:49;;;;;;;4.07;3.70;;;;;;;19.13;85.68;100480.50;4861408;29;20036;-78
2023/07/28 11:00:17;;;;;;;4.28;3.88;;;;;;;19.15;84.60;100475.50;4839497;29;20080;-79
2023/07/28 11:02:44;;;;;;;4.63;3.72;;;;;;;19.17;82.66;100481.44;4840184;29;20110;-77
2023/07/28 11:05:27;;;;;;;5.32;3.42;;;;;;;19.21;84.75;100482.31;4840221;29;20077;-79
2023/07/28 11:08:00;;;;;;;4.07;3.55;;;;;;;19.28;82.02;100477.16;4842917;29;20064;-75
2023/07/28 11:10:29;;;;;;;4.22;3.13;;;;;;;19.41;82.28;100469.84;4849754;29;20034;-80
2023/07/28 11:12:58;;;;;;;4.00;3.60;;;;;;;19.51;82.77;100480.28;4837991;29;20574;-79
2023/07/28 11:15:25;;;;;;;3.90;3.50;;;;;;;19.67;81.71;100471.50;4852071;29;20038;-77
2023/07/28 11:17:51;;;;;;;3.88;3.47;;;;;;;19.67;79.86;100483.19;4836331;29;20132;-79
2023/07/28 11:20:24;;;;;;;4.05;3.65;;;;;;;19.77;78.49;100476.50;4839533;29;20426;-76
2023/07/28 11:22:59;;;;;;;5.30;4.20;;;;;;;19.80;79.04;100479.34;4826716;29;20049;-77
2023/07/28 11:25:27;;;;;;;5.43;3.85;;;;;;;19.90;79.65;100486.25;4852958;29;20034;-79
2023/07/28 11:27:53;;;;;;;4.72;3.50;;;;;;;20.03;79.30;100482.41;4840363;29;20045;-79
2023/07/28 11:30:20;;;;;;;5.15;4.18;;;;;;;20.07;78.69;100469.75;4856261;29;20123;-77
2023/07/28 11:32:48;;;;;;;4.53;4.07;;;;;;;20.18;77.45;100475.50;4857106;29;20454;-75
2023/07/28 11:35:16;;;;;;;6.85;4.47;;;;;;;20.24;77.23;100476.84;4855463;29;20052;-77
2023/07/28 11:37:47;;;;;;;3.90;3.50;;;;;;;20.24;76.84;100479.56;4846715;29;20049;-76
2023/07/28 11:40:16;;;;;;;4.07;3.60;;;;;;;20.34;77.22;100479.13;4843872;29;20040;-74
2023/07/28 11:42:48;;;;;;;4.30;3.45;;;;;;;20.62;76.17;100484.66;4857637;29;20512;-75
2023/07/28 11:45:16;;;;;;;4.50;3.67;;;;;;;20.79;75.98;100480.88;4841016;29;20071;-77